Skip Navigation LinksHome page > Tools > METAR decoder Skip Navigation Links

METAR decoder

Settings

METAR

Chicago O'Hare Intl, Chicago

For information only: do not use for flight planning or navigation.
Latest weather
Observation time Wednesday, April 1, 2015 7:51 PM CDT
Local time Wednesday, April 1, 2015 8:21 PM CDT
Flight conditions Visual Meteorological Conditions
Winds
Wind direction South (180°)
Wind speed 17 mph
Peak wind speed 30 mph, 6:57 PM
Peak wind direction South (190°)
Visibility 10 mi.
Sky condition
Ceiling unlimited
Cloud layer scattered clouds 25,000 ft.
Temperature 65°F
Dewpoint 38°F
Altimeter 29.87 in.Hg
Derived measurements
Relative humidity 37%
Density altitude 1231 ft.
Sea-level pressure 29.87 in.Hg
Remarks
Automated weather observing station with precipitation discriminator.
METAR KORD 020051Z 18015KT 10SM SCT250 18/03 A2987 RMK AO2 PK WND 19026/2357 SLP115 T01830033

InnerDrive.Weather 4.0.5567.0 Release CLR 4.0.30319.34014
Copyright ©2015 Inner Drive Technology. All rights reserved. Portions Copyright ©1986-2015 David Braverman.

Find weather

Site navigation


Skip Navigation Links

Place info

Page info

PayPal - The safer, easier way to pay online!

Return home.

Copyright ©2015 Inner Drive Technology. Purveyors of fine, hand-crafted computer software. Page printed 2015-04-02T01:21:05 UTC.